Redondo Beach, CA

1:04 AM PST on February 24, 2017 (GMT -0800)
Redondo Beach | | Change Station
Active Advisory: High Surf Advisory Active Notice: High Surf Advisory

Elev 132 ft 33.83 °N, 118.38 °W | Updated 14 seconds ago

Clear
Clear
42.8 °F
Feels Like 43 °F
N
0.0
Wind Variable Wind from WSW

Today
High -- | Low -- °F
--% Chance of Precip.
Yesterday
High -- | Low -- °F
Precip. -- in
Pressure 30.12 in
Visibility 10.0 miles
Clouds Clear
Windchill 43 °F
Dew Point 24 °F
Humidity 47%
Rainfall 0.00 in
Snow Depth Not available.
6:27 AM 5:46 PM
Waning Crescent, 6% visible
METAR KHHR 240853Z AUTO 00000KT 10SM CLR 08/M04 A3012 RMK AO2 SLP199 T00831044 51007
Pressure 30.12 in
Visibility 10.0 miles
Clouds Clear
Windchill 43 °F
Dew Point 24 °F
Humidity 47%
Rainfall 0.00 in
Snow Depth Not available.
6:27 AM 5:46 PM
Waning Crescent, 6% visible
METAR KHHR 240853Z AUTO 00000KT 10SM CLR 08/M04 A3012 RMK AO2 SLP199 T00831044 51007

Get Your Daily Forecast Email!

Thanks for signing up!

Be on the lookout for a verification email in your inbox.

You'll start receiving the daily forecast at 8 AM.

×

10-Day Weather Forecast

Almanac

Astronomy

Feb. 24, 2017 Rise Set
Actual Time
Civil Twilight
Nautical Twilight
Astronomical Twilight
Moon
Length of Visible Light
Length of Day
Tomorrow will be .
, % of the Moon is Illuminated

Today's Extremes

State Highs State Lows

Community

WunderPhotos

Upload Photos

1,962,540 photos uploaded!

WunderBlog® & News

Nearby

Air Quality

  Air Quality AQ Index Pollutant
Not available.

Snow Depth

Station Depth Elevation

Earthquake Activity

City Distance Mag. Time & Date
Minimum magnitude displayed is 2.5.

Coastal Water Temperatures

Place Temperature

Stations

Nearby Weather Stations

Station Location Temp. Windchill Dew Point Humidity Wind Precip. Elev Updated Type
                   

Watches & Warnings

High Surf Advisory
Issued: 8:20 PM PST Feb. 23, 2017 – National Weather Service

... High surf advisory now in effect until 8 am PST Friday...

* surf... surf of 4 to 7 feet with will continue across Los Angeles
and Ventura County beaches through Friday morning. The largest
surf will likely occur on west facing beaches such as Ventura
and el porto.

* Impacts... large waves and strong rip currents will increase
the risk of ocean drowning for swimmers and surfers. Large
breaking waves can cause injury... wash people off beaches and
rocks... and capsize small boats nearshore.

Precautionary/preparedness actions...

A high surf advisory means that high surf will affect beaches in
the advisory area... producing localized beach erosion and
dangerous swimming conditions.



Hall